Six Lakes, MI

7:11 PM EST on November 21, 2014 (GMT -0500)
Mount Pleasant Municipal | Change Station
CLOSE
Current Station
Airport
Location: Mount Pleasant,
Elevation: 755 ft
Nearby Weather Stations
Active Advisory: Freezing Rain Advisory Active Notice: Record Report

Elev 755 ft 43.62 °N, 84.74 °W | Updated 16 minutes ago

Partly Cloudy
Partly Cloudy
24 °F
Feels Like 17 °F
N
6
Wind Variable Wind from SSE

Today
High -- | Low -- °F
--% Chance of Precip.
Yesterday
High -- | Low -- °F
Precip. -- in
7:41 AM 5:10 PM
Waning Crescent, 0% visible
Pressure 30.32 in
Visibility 10.0 miles
Clouds Clear
Windchill 17 °F
Dew Point 16 °F
Humidity 70%
Rainfall 0.00 in
Snow Depth Not available.
UV 0 out of 12
Pollen .10 out of 12
Air Quality Not available.
Flu Activity Not available.
METAR KMOP 212355Z AUTO 16005KT 10SM CLR M04/M09 A3032 RMK AO2 T10431091 11025 21050

More Conditions Fewer Conditions

Pressure 30.32 in
Visibility 10.0 miles
Clouds Clear
Windchill 17 °F
Dew Point 16 °F
Humidity 70%
Rainfall 0.00 in
Snow Depth Not available.
UV 0 out of 12
Pollen .10 out of 12
Air Quality Not available.
Flu Activity Not available.
METAR KMOP 212355Z AUTO 16005KT 10SM CLR M04/M09 A3032 RMK AO2 T10431091 11025 21050

More Conditions Fewer Conditions

10-Day Weather Forecast

Almanac

Astronomy

Nov. 21, 2014 Rise Set
Actual Time
Civil Twilight
Nautical Twilight
Astronomical Twilight
Moon
Length of Visible Light
Length of Day
Tomorrow will be .
, % of the Moon is Illuminated

Today's Extremes

State Highs State Lows

Community

WunderPhotos

Upload Photos

1,772,744 photos uploaded!

WunderBlogs® & News

Nearby

Air Quality

  Air Quality AQ Index Pollutant
Not available.

Snow Depth

Station Depth Elevation

Earthquake Activity

City Distance Mag. Time & Date
Minimum magnitude displayed is 2.5.

Coastal Water Temperatures

Place Temperature

Nearby Weather Stations